BEG airport status
LYBE 040530Z 20005KT CAVOK 22/18 Q1012 NOSIG